sensor_id;sensor_type;location;lat;lon;timestamp;temperature;humidity
31113;DHT22;17763;48.730;9.136;2023-04-06T00:02:12;2.40;81.30
31113;DHT22;17763;48.730;9.136;2023-04-06T00:04:37;2.30;81.30
31113;DHT22;17763;48.730;9.136;2023-04-06T00:07:03;2.30;81.20
31113;DHT22;17763;48.730;9.136;2023-04-06T00:09:31;2.20;80.80
31113;DHT22;17763;48.730;9.136;2023-04-06T00:11:57;2.20;80.80
31113;DHT22;17763;48.730;9.136;2023-04-06T00:14:28;2.10;81.10
31113;DHT22;17763;48.730;9.136;2023-04-06T00:16:54;2.00;81.40
31113;DHT22;17763;48.730;9.136;2023-04-06T00:19:20;2.00;81.80
31113;DHT22;17763;48.730;9.136;2023-04-06T00:21:46;2.00;82.10
31113;DHT22;17763;48.730;9.136;2023-04-06T00:24:12;1.90;82.30
31113;DHT22;17763;48.730;9.136;2023-04-06T00:26:38;1.90;82.60
31113;DHT22;17763;48.730;9.136;2023-04-06T00:29:03;1.90;82.50
31113;DHT22;17763;48.730;9.136;2023-04-06T00:31:29;1.80;81.80
31113;DHT22;17763;48.730;9.136;2023-04-06T00:33:55;1.80;81.50
31113;DHT22;17763;48.730;9.136;2023-04-06T00:36:21;1.80;81.30
31113;DHT22;17763;48.730;9.136;2023-04-06T00:38:46;1.80;81.40
31113;DHT22;17763;48.730;9.136;2023-04-06T00:41:12;1.70;81.20
31113;DHT22;17763;48.730;9.136;2023-04-06T00:43:38;1.70;81.10
31113;DHT22;17763;48.730;9.136;2023-04-06T00:46:04;1.70;81.00
31113;DHT22;17763;48.730;9.136;2023-04-06T00:48:31;1.70;81.10
31113;DHT22;17763;48.730;9.136;2023-04-06T00:50:57;1.70;81.30
31113;DHT22;17763;48.730;9.136;2023-04-06T00:53:23;1.70;81.60
31113;DHT22;17763;48.730;9.136;2023-04-06T00:55:49;1.70;81.60
31113;DHT22;17763;48.730;9.136;2023-04-06T00:58:15;1.70;81.70
31113;DHT22;17763;48.730;9.136;2023-04-06T01:00:40;1.70;81.70
31113;DHT22;17763;48.730;9.136;2023-04-06T01:03:09;1.70;82.10
31113;DHT22;17763;48.730;9.136;2023-04-06T01:05:37;1.70;82.40
31113;DHT22;17763;48.730;9.136;2023-04-06T01:08:06;1.60;82.40
31113;DHT22;17763;48.730;9.136;2023-04-06T01:10:34;1.60;82.40
31113;DHT22;17763;48.730;9.136;2023-04-06T01:13:00;1.70;82.10
31113;DHT22;17763;48.730;9.136;2023-04-06T01:15:27;1.60;82.10
31113;DHT22;17763;48.730;9.136;2023-04-06T01:17:54;1.60;83.00
31113;DHT22;17763;48.730;9.136;2023-04-06T01:20:22;1.60;84.40
31113;DHT22;17763;48.730;9.136;2023-04-06T01:22:48;1.60;85.50
31113;DHT22;17763;48.730;9.136;2023-04-06T01:25:13;1.50;86.50
31113;DHT22;17763;48.730;9.136;2023-04-06T01:27:39;1.50;87.30
31113;DHT22;17763;48.730;9.136;2023-04-06T01:30:06;1.50;88.00
31113;DHT22;17763;48.730;9.136;2023-04-06T01:32:31;1.40;88.30
31113;DHT22;17763;48.730;9.136;2023-04-06T01:34:57;1.30;88.70
31113;DHT22;17763;48.730;9.136;2023-04-06T01:37:23;1.30;89.20
31113;DHT22;17763;48.730;9.136;2023-04-06T01:39:49;1.30;89.70
31113;DHT22;17763;48.730;9.136;2023-04-06T01:42:15;1.20;90.00
31113;DHT22;17763;48.730;9.136;2023-04-06T01:44:41;1.20;89.90
31113;DHT22;17763;48.730;9.136;2023-04-06T01:47:07;1.20;90.20
31113;DHT22;17763;48.730;9.136;2023-04-06T01:49:33;1.20;90.40
31113;DHT22;17763;48.730;9.136;2023-04-06T01:51:59;1.10;90.60
31113;DHT22;17763;48.730;9.136;2023-04-06T01:54:25;1.10;90.70
31113;DHT22;17763;48.730;9.136;2023-04-06T01:56:50;1.10;90.80
31113;DHT22;17763;48.730;9.136;2023-04-06T01:59:23;1.10;90.90
31113;DHT22;17763;48.730;9.136;2023-04-06T02:01:49;1.10;91.10
31113;DHT22;17763;48.730;9.136;2023-04-06T02:04:14;1.10;91.20
31113;DHT22;17763;48.730;9.136;2023-04-06T02:06:40;1.10;91.50
31113;DHT22;17763;48.730;9.136;2023-04-06T02:09:06;1.00;91.70
31113;DHT22;17763;48.730;9.136;2023-04-06T02:11:32;1.10;91.80
31113;DHT22;17763;48.730;9.136;2023-04-06T02:13:57;1.20;92.00
31113;DHT22;17763;48.730;9.136;2023-04-06T02:16:25;1.00;92.10
31113;DHT22;17763;48.730;9.136;2023-04-06T02:18:51;0.90;92.20
31113;DHT22;17763;48.730;9.136;2023-04-06T02:21:17;0.90;92.30
31113;DHT22;17763;48.730;9.136;2023-04-06T02:23:47;1.10;92.50
31113;DHT22;17763;48.730;9.136;2023-04-06T02:26:20;0.90;92.60
31113;DHT22;17763;48.730;9.136;2023-04-06T02:28:46;0.80;92.70
31113;DHT22;17763;48.730;9.136;2023-04-06T02:31:12;0.80;93.00
31113;DHT22;17763;48.730;9.136;2023-04-06T02:33:40;0.80;93.20
31113;DHT22;17763;48.730;9.136;2023-04-06T02:36:08;0.80;93.50
31113;DHT22;17763;48.730;9.136;2023-04-06T02:38:39;0.70;93.70
31113;DHT22;17763;48.730;9.136;2023-04-06T02:41:04;0.80;93.90
31113;DHT22;17763;48.730;9.136;2023-04-06T02:43:30;0.70;94.00
31113;DHT22;17763;48.730;9.136;2023-04-06T02:45:56;0.70;94.30
31113;DHT22;17763;48.730;9.136;2023-04-06T02:48:21;0.70;94.50
31113;DHT22;17763;48.730;9.136;2023-04-06T02:50:47;0.70;94.70
31113;DHT22;17763;48.730;9.136;2023-04-06T02:53:13;0.70;94.90
31113;DHT22;17763;48.730;9.136;2023-04-06T02:55:39;0.60;95.00
31113;DHT22;17763;48.730;9.136;2023-04-06T02:58:07;0.60;95.20
31113;DHT22;17763;48.730;9.136;2023-04-06T03:00:34;0.60;95.40
31113;DHT22;17763;48.730;9.136;2023-04-06T03:03:01;0.60;95.60
31113;DHT22;17763;48.730;9.136;2023-04-06T03:05:27;0.50;95.80
31113;DHT22;17763;48.730;9.136;2023-04-06T03:07:53;0.50;96.00
31113;DHT22;17763;48.730;9.136;2023-04-06T03:10:20;0.60;96.30
31113;DHT22;17763;48.730;9.136;2023-04-06T03:12:46;0.50;96.40
31113;DHT22;17763;48.730;9.136;2023-04-06T03:15:12;0.50;96.60
31113;DHT22;17763;48.730;9.136;2023-04-06T03:17:41;0.50;96.60
31113;DHT22;17763;48.730;9.136;2023-04-06T03:20:06;0.50;96.80
31113;DHT22;17763;48.730;9.136;2023-04-06T03:22:36;0.50;97.10
31113;DHT22;17763;48.730;9.136;2023-04-06T03:25:04;0.50;97.40
31113;DHT22;17763;48.730;9.136;2023-04-06T03:27:32;0.50;97.80
31113;DHT22;17763;48.730;9.136;2023-04-06T03:29:58;0.40;98.10
31113;DHT22;17763;48.730;9.136;2023-04-06T03:32:23;0.40;98.50
31113;DHT22;17763;48.730;9.136;2023-04-06T03:34:50;0.40;98.90
31113;DHT22;17763;48.730;9.136;2023-04-06T03:37:17;0.40;99.40
31113;DHT22;17763;48.730;9.136;2023-04-06T03:39:43;0.40;99.60
31113;DHT22;17763;48.730;9.136;2023-04-06T03:42:09;0.40;99.90
31113;DHT22;17763;48.730;9.136;2023-04-06T03:44:35;0.50;99.90
31113;DHT22;17763;48.730;9.136;2023-04-06T03:47:01;0.50;99.90
31113;DHT22;17763;48.730;9.136;2023-04-06T03:49:27;0.50;99.90
31113;DHT22;17763;48.730;9.136;2023-04-06T03:51:53;0.50;99.60
31113;DHT22;17763;48.730;9.136;2023-04-06T03:54:22;0.50;99.50
31113;DHT22;17763;48.730;9.136;2023-04-06T03:56:50;0.50;99.50
31113;DHT22;17763;48.730;9.136;2023-04-06T03:59:16;0.50;99.50
31113;DHT22;17763;48.730;9.136;2023-04-06T04:01:46;0.50;99.20
31113;DHT22;17763;48.730;9.136;2023-04-06T04:04:12;0.50;99.10
31113;DHT22;17763;48.730;9.136;2023-04-06T04:06:38;0.40;99.20
31113;DHT22;17763;48.730;9.136;2023-04-06T04:09:04;0.40;99.30
31113;DHT22;17763;48.730;9.136;2023-04-06T04:11:30;0.40;99.20
31113;DHT22;17763;48.730;9.136;2023-04-06T04:13:58;0.40;99.30
31113;DHT22;17763;48.730;9.136;2023-04-06T04:16:24;0.40;99.40
31113;DHT22;17763;48.730;9.136;2023-04-06T04:18:50;0.50;99.30
31113;DHT22;17763;48.730;9.136;2023-04-06T04:21:18;0.40;99.30
31113;DHT22;17763;48.730;9.136;2023-04-06T04:23:43;0.50;99.30
31113;DHT22;17763;48.730;9.136;2023-04-06T04:26:11;0.30;99.30
31113;DHT22;17763;48.730;9.136;2023-04-06T04:28:37;0.40;99.40
31113;DHT22;17763;48.730;9.136;2023-04-06T04:31:03;0.40;99.40
31113;DHT22;17763;48.730;9.136;2023-04-06T04:33:36;0.40;99.30
31113;DHT22;17763;48.730;9.136;2023-04-06T04:36:02;0.50;99.20
31113;DHT22;17763;48.730;9.136;2023-04-06T04:38:40;0.50;99.20
31113;DHT22;17763;48.730;9.136;2023-04-06T04:41:06;0.50;99.20
31113;DHT22;17763;48.730;9.136;2023-04-06T04:43:32;0.50;99.10
31113;DHT22;17763;48.730;9.136;2023-04-06T04:45:58;0.40;99.20
31113;DHT22;17763;48.730;9.136;2023-04-06T04:48:24;0.50;99.30
31113;DHT22;17763;48.730;9.136;2023-04-06T04:50:50;0.50;99.50
31113;DHT22;17763;48.730;9.136;2023-04-06T04:53:22;0.50;99.90
31113;DHT22;17763;48.730;9.136;2023-04-06T04:55:56;0.50;99.90
31113;DHT22;17763;48.730;9.136;2023-04-06T04:58:25;0.50;99.90
31113;DHT22;17763;48.730;9.136;2023-04-06T05:00:53;0.50;99.90
31113;DHT22;17763;48.730;9.136;2023-04-06T05:03:24;0.50;99.90
31113;DHT22;17763;48.730;9.136;2023-04-06T05:05:50;0.50;99.90
31113;DHT22;17763;48.730;9.136;2023-04-06T05:08:16;0.50;99.90
31113;DHT22;17763;48.730;9.136;2023-04-06T05:10:42;0.50;99.90
31113;DHT22;17763;48.730;9.136;2023-04-06T05:13:13;0.50;99.90
31113;DHT22;17763;48.730;9.136;2023-04-06T05:15:39;0.50;99.90
31113;DHT22;17763;48.730;9.136;2023-04-06T05:18:08;0.60;99.90
31113;DHT22;17763;48.730;9.136;2023-04-06T05:20:35;0.60;99.90
31113;DHT22;17763;48.730;9.136;2023-04-06T05:23:07;0.60;99.90
31113;DHT22;17763;48.730;9.136;2023-04-06T05:25:32;0.70;99.90
31113;DHT22;17763;48.730;9.136;2023-04-06T05:27:58;0.70;99.90
31113;DHT22;17763;48.730;9.136;2023-04-06T05:30:24;0.70;99.90
31113;DHT22;17763;48.730;9.136;2023-04-06T05:32:52;0.80;99.90
31113;DHT22;17763;48.730;9.136;2023-04-06T05:35:18;0.80;99.90
31113;DHT22;17763;48.730;9.136;2023-04-06T05:37:46;0.90;99.90
31113;DHT22;17763;48.730;9.136;2023-04-06T05:40:18;1.00;99.90
31113;DHT22;17763;48.730;9.136;2023-04-06T05:42:44;1.00;99.90
31113;DHT22;17763;48.730;9.136;2023-04-06T05:45:10;1.10;99.90
31113;DHT22;17763;48.730;9.136;2023-04-06T05:47:42;1.20;99.80
31113;DHT22;17763;48.730;9.136;2023-04-06T05:50:08;1.20;99.60
31113;DHT22;17763;48.730;9.136;2023-04-06T05:52:36;1.30;99.50
31113;DHT22;17763;48.730;9.136;2023-04-06T05:55:09;1.40;99.40
31113;DHT22;17763;48.730;9.136;2023-04-06T05:57:36;1.40;99.20
31113;DHT22;17763;48.730;9.136;2023-04-06T06:00:05;1.70;99.10
31113;DHT22;17763;48.730;9.136;2023-04-06T06:02:32;1.80;98.90
31113;DHT22;17763;48.730;9.136;2023-04-06T06:05:00;2.00;98.50
31113;DHT22;17763;48.730;9.136;2023-04-06T06:07:26;2.20;98.20
31113;DHT22;17763;48.730;9.136;2023-04-06T06:09:52;2.40;97.60
31113;DHT22;17763;48.730;9.136;2023-04-06T06:12:18;2.40;97.10
31113;DHT22;17763;48.730;9.136;2023-04-06T06:14:43;2.50;96.70
31113;DHT22;17763;48.730;9.136;2023-04-06T06:17:09;2.50;96.50
31113;DHT22;17763;48.730;9.136;2023-04-06T06:19:35;2.60;96.20
31113;DHT22;17763;48.730;9.136;2023-04-06T06:22:03;2.60;96.00
31113;DHT22;17763;48.730;9.136;2023-04-06T06:24:30;2.60;96.00
31113;DHT22;17763;48.730;9.136;2023-04-06T06:26:56;2.70;95.80
31113;DHT22;17763;48.730;9.136;2023-04-06T06:29:22;2.70;95.70
31113;DHT22;17763;48.730;9.136;2023-04-06T06:31:49;2.80;95.50
31113;DHT22;17763;48.730;9.136;2023-04-06T06:34:17;2.80;95.20
31113;DHT22;17763;48.730;9.136;2023-04-06T06:36:45;2.80;94.80
31113;DHT22;17763;48.730;9.136;2023-04-06T06:39:11;3.00;94.60
31113;DHT22;17763;48.730;9.136;2023-04-06T06:41:37;3.00;94.40
31113;DHT22;17763;48.730;9.136;2023-04-06T06:44:03;3.00;94.20
31113;DHT22;17763;48.730;9.136;2023-04-06T06:46:29;3.10;94.10
31113;DHT22;17763;48.730;9.136;2023-04-06T06:48:55;3.20;94.00
31113;DHT22;17763;48.730;9.136;2023-04-06T06:51:23;3.20;93.80
31113;DHT22;17763;48.730;9.136;2023-04-06T06:53:51;3.30;94.10
31113;DHT22;17763;48.730;9.136;2023-04-06T06:56:19;3.40;94.60
31113;DHT22;17763;48.730;9.136;2023-04-06T06:58:45;3.50;94.10
31113;DHT22;17763;48.730;9.136;2023-04-06T07:01:11;3.60;93.70
31113;DHT22;17763;48.730;9.136;2023-04-06T07:03:37;3.70;93.60
31113;DHT22;17763;48.730;9.136;2023-04-06T07:06:03;3.90;93.50
31113;DHT22;17763;48.730;9.136;2023-04-06T07:08:28;3.80;93.40
31113;DHT22;17763;48.730;9.136;2023-04-06T07:10:54;3.90;93.20
31113;DHT22;17763;48.730;9.136;2023-04-06T07:13:23;4.00;92.90
31113;DHT22;17763;48.730;9.136;2023-04-06T07:15:49;4.00;92.30
31113;DHT22;17763;48.730;9.136;2023-04-06T07:18:19;4.10;91.70
31113;DHT22;17763;48.730;9.136;2023-04-06T07:20:45;4.20;91.40
31113;DHT22;17763;48.730;9.136;2023-04-06T07:23:15;4.30;91.30
31113;DHT22;17763;48.730;9.136;2023-04-06T07:25:43;4.30;90.90
31113;DHT22;17763;48.730;9.136;2023-04-06T07:28:12;4.50;90.80
31113;DHT22;17763;48.730;9.136;2023-04-06T07:30:41;4.50;90.40
31113;DHT22;17763;48.730;9.136;2023-04-06T07:33:12;4.60;90.40
31113;DHT22;17763;48.730;9.136;2023-04-06T07:35:40;4.70;90.10
31113;DHT22;17763;48.730;9.136;2023-04-06T07:38:06;4.80;89.40
31113;DHT22;17763;48.730;9.136;2023-04-06T07:40:32;4.90;88.60
31113;DHT22;17763;48.730;9.136;2023-04-06T07:43:00;5.00;86.70
31113;DHT22;17763;48.730;9.136;2023-04-06T07:45:27;5.10;86.00
31113;DHT22;17763;48.730;9.136;2023-04-06T07:47:55;5.20;85.00
31113;DHT22;17763;48.730;9.136;2023-04-06T07:50:23;5.30;84.60
31113;DHT22;17763;48.730;9.136;2023-04-06T07:52:49;5.40;83.70
31113;DHT22;17763;48.730;9.136;2023-04-06T07:55:14;5.50;83.10
31113;DHT22;17763;48.730;9.136;2023-04-06T07:57:40;5.60;82.40
31113;DHT22;17763;48.730;9.136;2023-04-06T08:00:06;5.70;81.90
31113;DHT22;17763;48.730;9.136;2023-04-06T08:02:34;5.80;81.60
31113;DHT22;17763;48.730;9.136;2023-04-06T08:05:02;5.90;80.60
31113;DHT22;17763;48.730;9.136;2023-04-06T08:07:28;6.00;80.10
31113;DHT22;17763;48.730;9.136;2023-04-06T08:09:54;6.10;79.60
31113;DHT22;17763;48.730;9.136;2023-04-06T08:12:20;6.20;79.00
31113;DHT22;17763;48.730;9.136;2023-04-06T08:14:47;6.30;77.50
31113;DHT22;17763;48.730;9.136;2023-04-06T08:17:13;6.40;77.30
31113;DHT22;17763;48.730;9.136;2023-04-06T08:19:38;6.50;76.40
31113;DHT22;17763;48.730;9.136;2023-04-06T08:22:06;6.60;75.70
31113;DHT22;17763;48.730;9.136;2023-04-06T08:24:32;6.70;75.00
31113;DHT22;17763;48.730;9.136;2023-04-06T08:26:57;6.70;74.50
31113;DHT22;17763;48.730;9.136;2023-04-06T08:29:25;6.80;74.20
31113;DHT22;17763;48.730;9.136;2023-04-06T08:31:51;6.90;74.00
31113;DHT22;17763;48.730;9.136;2023-04-06T08:34:20;7.00;73.50
31113;DHT22;17763;48.730;9.136;2023-04-06T08:36:46;7.10;72.90
31113;DHT22;17763;48.730;9.136;2023-04-06T08:39:12;7.20;72.70
31113;DHT22;17763;48.730;9.136;2023-04-06T08:41:38;7.30;71.90
31113;DHT22;17763;48.730;9.136;2023-04-06T08:44:03;7.40;70.70
31113;DHT22;17763;48.730;9.136;2023-04-06T08:46:33;7.40;69.80
31113;DHT22;17763;48.730;9.136;2023-04-06T08:49:05;7.50;68.90
31113;DHT22;17763;48.730;9.136;2023-04-06T08:51:36;7.60;66.90
31113;DHT22;17763;48.730;9.136;2023-04-06T08:54:02;7.60;65.10
31113;DHT22;17763;48.730;9.136;2023-04-06T08:56:28;7.70;64.80
31113;DHT22;17763;48.730;9.136;2023-04-06T08:58:57;7.70;64.30
31113;DHT22;17763;48.730;9.136;2023-04-06T09:01:26;7.80;64.30
31113;DHT22;17763;48.730;9.136;2023-04-06T09:03:59;7.80;64.40
31113;DHT22;17763;48.730;9.136;2023-04-06T09:06:30;7.80;62.80
31113;DHT22;17763;48.730;9.136;2023-04-06T09:08:57;7.90;62.60
31113;DHT22;17763;48.730;9.136;2023-04-06T09:11:23;8.00;62.50
31113;DHT22;17763;48.730;9.136;2023-04-06T09:13:51;8.10;62.30
31113;DHT22;17763;48.730;9.136;2023-04-06T09:16:17;8.10;62.30
31113;DHT22;17763;48.730;9.136;2023-04-06T09:18:44;8.20;59.00
31113;DHT22;17763;48.730;9.136;2023-04-06T09:21:10;8.30;59.40
31113;DHT22;17763;48.730;9.136;2023-04-06T09:23:37;8.40;60.20
31113;DHT22;17763;48.730;9.136;2023-04-06T09:26:12;8.40;59.60
31113;DHT22;17763;48.730;9.136;2023-04-06T09:28:46;8.50;60.50
31113;DHT22;17763;48.730;9.136;2023-04-06T09:31:13;8.60;60.00
31113;DHT22;17763;48.730;9.136;2023-04-06T09:33:41;8.60;59.50
31113;DHT22;17763;48.730;9.136;2023-04-06T09:36:07;8.70;57.30
31113;DHT22;17763;48.730;9.136;2023-04-06T09:38:37;8.70;57.10
31113;DHT22;17763;48.730;9.136;2023-04-06T09:41:02;8.70;57.00
31113;DHT22;17763;48.730;9.136;2023-04-06T09:43:29;8.70;57.60
31113;DHT22;17763;48.730;9.136;2023-04-06T09:45:56;8.70;57.90
31113;DHT22;17763;48.730;9.136;2023-04-06T09:48:25;8.80;57.70
31113;DHT22;17763;48.730;9.136;2023-04-06T09:50:58;8.90;56.50
31113;DHT22;17763;48.730;9.136;2023-04-06T09:53:26;8.90;55.10
31113;DHT22;17763;48.730;9.136;2023-04-06T09:55:57;9.00;52.90
31113;DHT22;17763;48.730;9.136;2023-04-06T09:58:28;9.00;53.70
31113;DHT22;17763;48.730;9.136;2023-04-06T10:01:05;9.10;55.10
31113;DHT22;17763;48.730;9.136;2023-04-06T10:06:25;9.20;54.30
31113;DHT22;17763;48.730;9.136;2023-04-06T10:08:55;9.30;53.80
31113;DHT22;17763;48.730;9.136;2023-04-06T10:11:22;9.30;53.10
31113;DHT22;17763;48.730;9.136;2023-04-06T10:13:50;9.30;53.20
31113;DHT22;17763;48.730;9.136;2023-04-06T10:16:17;9.30;53.20
31113;DHT22;17763;48.730;9.136;2023-04-06T10:19:09;9.30;54.80
31113;DHT22;17763;48.730;9.136;2023-04-06T10:21:38;9.40;55.50
31113;DHT22;17763;48.730;9.136;2023-04-06T10:24:08;9.50;55.20
31113;DHT22;17763;48.730;9.136;2023-04-06T10:26:36;9.50;55.40
31113;DHT22;17763;48.730;9.136;2023-04-06T10:29:07;9.40;53.90
31113;DHT22;17763;48.730;9.136;2023-04-06T10:31:39;9.50;54.10
31113;DHT22;17763;48.730;9.136;2023-04-06T10:34:05;9.40;53.60
31113;DHT22;17763;48.730;9.136;2023-04-06T10:36:34;9.40;54.10
31113;DHT22;17763;48.730;9.136;2023-04-06T10:39:02;9.50;55.30
31113;DHT22;17763;48.730;9.136;2023-04-06T10:43:59;9.60;54.60
31113;DHT22;17763;48.730;9.136;2023-04-06T10:46:31;9.60;54.30
31113;DHT22;17763;48.730;9.136;2023-04-06T10:48:57;9.60;52.10
31113;DHT22;17763;48.730;9.136;2023-04-06T10:51:28;9.60;52.60
31113;DHT22;17763;48.730;9.136;2023-04-06T10:53:54;9.70;53.20
31113;DHT22;17763;48.730;9.136;2023-04-06T10:56:24;9.70;54.00
31113;DHT22;17763;48.730;9.136;2023-04-06T10:58:54;9.70;54.10
31113;DHT22;17763;48.730;9.136;2023-04-06T11:01:24;9.80;53.90
31113;DHT22;17763;48.730;9.136;2023-04-06T11:03:55;9.90;53.60
31113;DHT22;17763;48.730;9.136;2023-04-06T11:06:25;9.90;53.00
31113;DHT22;17763;48.730;9.136;2023-04-06T11:08:53;10.00;52.20
31113;DHT22;17763;48.730;9.136;2023-04-06T11:11:25;10.00;53.20
31113;DHT22;17763;48.730;9.136;2023-04-06T11:14:01;10.10;52.70
31113;DHT22;17763;48.730;9.136;2023-04-06T11:16:29;10.20;52.50
31113;DHT22;17763;48.730;9.136;2023-04-06T11:24:13;10.30;51.20
31113;DHT22;17763;48.730;9.136;2023-04-06T11:26:48;10.20;49.70
31113;DHT22;17763;48.730;9.136;2023-04-06T11:29:20;10.10;49.50
31113;DHT22;17763;48.730;9.136;2023-04-06T11:31:50;10.10;50.50
31113;DHT22;17763;48.730;9.136;2023-04-06T11:34:18;10.10;48.80
31113;DHT22;17763;48.730;9.136;2023-04-06T11:36:46;10.20;49.60
31113;DHT22;17763;48.730;9.136;2023-04-06T11:39:21;10.20;49.50
31113;DHT22;17763;48.730;9.136;2023-04-06T11:41:56;10.20;50.10
31113;DHT22;17763;48.730;9.136;2023-04-06T11:44:39;10.40;50.50
31113;DHT22;17763;48.730;9.136;2023-04-06T11:47:07;10.50;50.70
31113;DHT22;17763;48.730;9.136;2023-04-06T11:49:41;10.70;49.80
31113;DHT22;17763;48.730;9.136;2023-04-06T11:52:24;10.80;50.20
31113;DHT22;17763;48.730;9.136;2023-04-06T11:54:52;11.00;49.70
31113;DHT22;17763;48.730;9.136;2023-04-06T11:57:21;11.10;49.50
31113;DHT22;17763;48.730;9.136;2023-04-06T11:59:49;11.10;47.80
31113;DHT22;17763;48.730;9.136;2023-04-06T12:02:15;11.10;48.10
31113;DHT22;17763;48.730;9.136;2023-04-06T12:04:41;11.20;48.30
31113;DHT22;17763;48.730;9.136;2023-04-06T12:07:08;11.20;48.00
31113;DHT22;17763;48.730;9.136;2023-04-06T12:09:36;11.30;47.60
31113;DHT22;17763;48.730;9.136;2023-04-06T12:12:05;11.20;46.10
31113;DHT22;17763;48.730;9.136;2023-04-06T12:14:31;11.10;46.40
31113;DHT22;17763;48.730;9.136;2023-04-06T12:16:59;11.10;47.30
31113;DHT22;17763;48.730;9.136;2023-04-06T12:19:24;11.20;47.90
31113;DHT22;17763;48.730;9.136;2023-04-06T12:21:56;11.30;49.20
31113;DHT22;17763;48.730;9.136;2023-04-06T12:24:25;11.50;51.80
31113;DHT22;17763;48.730;9.136;2023-04-06T12:26:51;11.70;55.60
31113;DHT22;17763;48.730;9.136;2023-04-06T12:29:19;11.90;50.50
31113;DHT22;17763;48.730;9.136;2023-04-06T12:31:45;12.00;48.70
31113;DHT22;17763;48.730;9.136;2023-04-06T12:34:11;12.10;47.30
31113;DHT22;17763;48.730;9.136;2023-04-06T12:36:37;12.00;45.10
31113;DHT22;17763;48.730;9.136;2023-04-06T12:39:03;11.70;44.20
31113;DHT22;17763;48.730;9.136;2023-04-06T12:41:29;11.50;45.10
31113;DHT22;17763;48.730;9.136;2023-04-06T12:43:55;11.40;45.10
31113;DHT22;17763;48.730;9.136;2023-04-06T12:46:21;11.10;44.80
31113;DHT22;17763;48.730;9.136;2023-04-06T12:48:47;11.10;45.40
31113;DHT22;17763;48.730;9.136;2023-04-06T12:51:13;11.20;45.70
31113;DHT22;17763;48.730;9.136;2023-04-06T12:53:39;11.10;45.90
31113;DHT22;17763;48.730;9.136;2023-04-06T12:56:16;11.20;46.60
31113;DHT22;17763;48.730;9.136;2023-04-06T12:58:43;11.30;44.80
31113;DHT22;17763;48.730;9.136;2023-04-06T13:01:09;11.40;46.00
31113;DHT22;17763;48.730;9.136;2023-04-06T13:03:35;11.60;46.00
31113;DHT22;17763;48.730;9.136;2023-04-06T13:06:01;11.70;46.00
31113;DHT22;17763;48.730;9.136;2023-04-06T13:08:30;11.90;45.60
31113;DHT22;17763;48.730;9.136;2023-04-06T13:10:56;12.00;44.70
31113;DHT22;17763;48.730;9.136;2023-04-06T13:13:26;11.80;43.70
31113;DHT22;17763;48.730;9.136;2023-04-06T13:16:00;11.90;44.00
31113;DHT22;17763;48.730;9.136;2023-04-06T13:18:29;12.10;44.40
31113;DHT22;17763;48.730;9.136;2023-04-06T13:20:57;12.20;42.50
31113;DHT22;17763;48.730;9.136;2023-04-06T13:23:25;12.20;42.80
31113;DHT22;17763;48.730;9.136;2023-04-06T13:26:05;12.20;42.00
31113;DHT22;17763;48.730;9.136;2023-04-06T13:28:33;12.20;42.60
31113;DHT22;17763;48.730;9.136;2023-04-06T13:30:59;12.00;42.40
31113;DHT22;17763;48.730;9.136;2023-04-06T13:33:29;12.10;42.50
31113;DHT22;17763;48.730;9.136;2023-04-06T13:35:55;12.30;43.30
31113;DHT22;17763;48.730;9.136;2023-04-06T13:38:23;12.40;44.20
31113;DHT22;17763;48.730;9.136;2023-04-06T13:40:52;12.40;43.40
31113;DHT22;17763;48.730;9.136;2023-04-06T13:43:18;12.40;42.80
31113;DHT22;17763;48.730;9.136;2023-04-06T13:45:52;12.50;43.60
31113;DHT22;17763;48.730;9.136;2023-04-06T13:48:18;12.80;42.70
31113;DHT22;17763;48.730;9.136;2023-04-06T13:50:46;12.90;42.70
31113;DHT22;17763;48.730;9.136;2023-04-06T13:53:12;13.10;42.30
31113;DHT22;17763;48.730;9.136;2023-04-06T13:55:41;13.20;42.40
31113;DHT22;17763;48.730;9.136;2023-04-06T13:58:06;13.40;42.20
31113;DHT22;17763;48.730;9.136;2023-04-06T14:00:32;13.70;42.00
31113;DHT22;17763;48.730;9.136;2023-04-06T14:02:58;13.60;40.60
31113;DHT22;17763;48.730;9.136;2023-04-06T14:05:23;13.70;41.70
31113;DHT22;17763;48.730;9.136;2023-04-06T14:07:50;13.90;40.00
31113;DHT22;17763;48.730;9.136;2023-04-06T14:10:15;14.00;40.50
31113;DHT22;17763;48.730;9.136;2023-04-06T14:12:46;14.00;39.30
31113;DHT22;17763;48.730;9.136;2023-04-06T14:15:12;13.80;40.30
31113;DHT22;17763;48.730;9.136;2023-04-06T14:17:40;13.40;40.10
31113;DHT22;17763;48.730;9.136;2023-04-06T14:20:06;13.30;40.10
31113;DHT22;17763;48.730;9.136;2023-04-06T14:22:35;13.30;42.10
31113;DHT22;17763;48.730;9.136;2023-04-06T14:25:01;13.30;40.00
31113;DHT22;17763;48.730;9.136;2023-04-06T14:27:26;13.50;41.40
31113;DHT22;17763;48.730;9.136;2023-04-06T14:29:52;13.70;40.50
31113;DHT22;17763;48.730;9.136;2023-04-06T14:32:20;13.80;40.10
31113;DHT22;17763;48.730;9.136;2023-04-06T14:34:46;13.80;39.40
31113;DHT22;17763;48.730;9.136;2023-04-06T14:37:14;13.80;40.50
31113;DHT22;17763;48.730;9.136;2023-04-06T14:39:40;13.80;39.80
31113;DHT22;17763;48.730;9.136;2023-04-06T14:42:05;14.10;39.80
31113;DHT22;17763;48.730;9.136;2023-04-06T14:44:34;14.20;40.10
31113;DHT22;17763;48.730;9.136;2023-04-06T14:47:02;14.40;39.50
31113;DHT22;17763;48.730;9.136;2023-04-06T14:49:29;14.70;40.10
31113;DHT22;17763;48.730;9.136;2023-04-06T14:51:55;14.80;39.10
31113;DHT22;17763;48.730;9.136;2023-04-06T14:54:21;14.70;38.80
31113;DHT22;17763;48.730;9.136;2023-04-06T14:56:46;14.60;39.00
31113;DHT22;17763;48.730;9.136;2023-04-06T14:59:12;14.50;38.70
31113;DHT22;17763;48.730;9.136;2023-04-06T15:01:38;14.40;38.90
31113;DHT22;17763;48.730;9.136;2023-04-06T15:04:06;14.50;39.30
31113;DHT22;17763;48.730;9.136;2023-04-06T15:06:34;14.20;39.10
31113;DHT22;17763;48.730;9.136;2023-04-06T15:09:00;14.20;39.70
31113;DHT22;17763;48.730;9.136;2023-04-06T15:11:28;13.70;39.50
31113;DHT22;17763;48.730;9.136;2023-04-06T15:13:54;13.20;39.70
31113;DHT22;17763;48.730;9.136;2023-04-06T15:16:20;13.00;41.50
31113;DHT22;17763;48.730;9.136;2023-04-06T15:18:45;13.00;42.60
31113;DHT22;17763;48.730;9.136;2023-04-06T15:21:11;12.90;42.70
31113;DHT22;17763;48.730;9.136;2023-04-06T15:23:40;12.90;42.70
31113;DHT22;17763;48.730;9.136;2023-04-06T15:26:10;12.80;43.10
31113;DHT22;17763;48.730;9.136;2023-04-06T15:28:44;12.70;43.50
31113;DHT22;17763;48.730;9.136;2023-04-06T15:31:17;12.80;43.80
31113;DHT22;17763;48.730;9.136;2023-04-06T15:33:43;12.70;43.70
31113;DHT22;17763;48.730;9.136;2023-04-06T15:36:38;12.80;44.50
31113;DHT22;17763;48.730;9.136;2023-04-06T15:39:07;12.70;43.60
31113;DHT22;17763;48.730;9.136;2023-04-06T15:41:34;12.70;44.00
31113;DHT22;17763;48.730;9.136;2023-04-06T15:44:00;12.70;44.10
31113;DHT22;17763;48.730;9.136;2023-04-06T15:46:25;12.50;44.70
31113;DHT22;17763;48.730;9.136;2023-04-06T15:48:56;12.50;44.00
31113;DHT22;17763;48.730;9.136;2023-04-06T15:51:22;12.40;43.90
31113;DHT22;17763;48.730;9.136;2023-04-06T15:53:51;12.30;44.40
31113;DHT22;17763;48.730;9.136;2023-04-06T15:56:16;12.30;44.20